sensor_id;sensor_type;location;lat;lon;timestamp;P1;durP1;ratioP1;P2;durP2;ratioP2
17177;SDS011;8704;52.006;4.374;2023-08-17T00:01:41;7.90;;;3.45;;
17177;SDS011;8704;52.006;4.374;2023-08-17T00:04:09;6.32;;;3.40;;
17177;SDS011;8704;52.006;4.374;2023-08-17T00:06:38;6.68;;;3.20;;
17177;SDS011;8704;52.006;4.374;2023-08-17T00:09:07;5.40;;;3.15;;
17177;SDS011;8704;52.006;4.374;2023-08-17T00:11:36;5.63;;;2.90;;
17177;SDS011;8704;52.006;4.374;2023-08-17T00:14:04;10.50;;;3.50;;
17177;SDS011;8704;52.006;4.374;2023-08-17T00:16:32;4.72;;;2.80;;
17177;SDS011;8704;52.006;4.374;2023-08-17T00:19:01;8.85;;;3.53;;
17177;SDS011;8704;52.006;4.374;2023-08-17T00:21:29;6.30;;;3.10;;
17177;SDS011;8704;52.006;4.374;2023-08-17T00:23:57;5.57;;;2.88;;
17177;SDS011;8704;52.006;4.374;2023-08-17T00:26:27;6.68;;;3.13;;
17177;SDS011;8704;52.006;4.374;2023-08-17T00:28:55;9.43;;;3.28;;
17177;SDS011;8704;52.006;4.374;2023-08-17T00:31:23;6.18;;;2.67;;
17177;SDS011;8704;52.006;4.374;2023-08-17T00:33:52;6.07;;;2.80;;
17177;SDS011;8704;52.006;4.374;2023-08-17T00:36:20;6.95;;;3.10;;
17177;SDS011;8704;52.006;4.374;2023-08-17T00:38:48;7.40;;;3.20;;
17177;SDS011;8704;52.006;4.374;2023-08-17T00:41:16;7.55;;;2.83;;
17177;SDS011;8704;52.006;4.374;2023-08-17T00:43:45;7.53;;;3.08;;
17177;SDS011;8704;52.006;4.374;2023-08-17T00:46:13;7.78;;;3.00;;
17177;SDS011;8704;52.006;4.374;2023-08-17T00:48:41;7.03;;;3.10;;
17177;SDS011;8704;52.006;4.374;2023-08-17T00:51:10;5.32;;;2.83;;
17177;SDS011;8704;52.006;4.374;2023-08-17T00:53:39;8.35;;;2.80;;
17177;SDS011;8704;52.006;4.374;2023-08-17T00:56:07;5.75;;;2.92;;
17177;SDS011;8704;52.006;4.374;2023-08-17T00:58:35;5.22;;;2.67;;
17177;SDS011;8704;52.006;4.374;2023-08-17T01:01:05;8.35;;;2.70;;
17177;SDS011;8704;52.006;4.374;2023-08-17T01:03:34;9.63;;;2.90;;
17177;SDS011;8704;52.006;4.374;2023-08-17T01:06:02;7.18;;;2.80;;
17177;SDS011;8704;52.006;4.374;2023-08-17T01:08:30;5.97;;;2.58;;
17177;SDS011;8704;52.006;4.374;2023-08-17T01:10:59;5.28;;;2.30;;
17177;SDS011;8704;52.006;4.374;2023-08-17T01:13:43;5.35;;;2.47;;
17177;SDS011;8704;52.006;4.374;2023-08-17T01:16:19;5.22;;;2.72;;
17177;SDS011;8704;52.006;4.374;2023-08-17T01:18:51;7.82;;;3.05;;
17177;SDS011;8704;52.006;4.374;2023-08-17T01:21:21;4.95;;;2.53;;
17177;SDS011;8704;52.006;4.374;2023-08-17T01:23:52;6.03;;;2.88;;
17177;SDS011;8704;52.006;4.374;2023-08-17T01:26:26;6.20;;;2.80;;
17177;SDS011;8704;52.006;4.374;2023-08-17T01:28:54;5.65;;;2.42;;
17177;SDS011;8704;52.006;4.374;2023-08-17T01:31:23;6.88;;;3.05;;
17177;SDS011;8704;52.006;4.374;2023-08-17T01:33:58;6.55;;;2.40;;
17177;SDS011;8704;52.006;4.374;2023-08-17T01:36:32;5.72;;;2.67;;
17177;SDS011;8704;52.006;4.374;2023-08-17T01:39:05;6.78;;;2.78;;
17177;SDS011;8704;52.006;4.374;2023-08-17T01:41:35;7.20;;;2.95;;
17177;SDS011;8704;52.006;4.374;2023-08-17T01:44:05;8.70;;;2.75;;
17177;SDS011;8704;52.006;4.374;2023-08-17T01:46:33;5.72;;;2.40;;
17177;SDS011;8704;52.006;4.374;2023-08-17T01:49:01;8.98;;;2.95;;
17177;SDS011;8704;52.006;4.374;2023-08-17T01:51:30;8.02;;;2.70;;
17177;SDS011;8704;52.006;4.374;2023-08-17T01:53:58;4.95;;;2.53;;
17177;SDS011;8704;52.006;4.374;2023-08-17T01:56:27;4.88;;;2.70;;
17177;SDS011;8704;52.006;4.374;2023-08-17T01:58:55;6.78;;;2.90;;
17177;SDS011;8704;52.006;4.374;2023-08-17T02:01:23;6.10;;;2.80;;
17177;SDS011;8704;52.006;4.374;2023-08-17T02:03:52;8.45;;;3.10;;
17177;SDS011;8704;52.006;4.374;2023-08-17T02:06:20;6.03;;;3.03;;
17177;SDS011;8704;52.006;4.374;2023-08-17T02:08:48;4.65;;;2.60;;
17177;SDS011;8704;52.006;4.374;2023-08-17T02:11:17;5.80;;;2.85;;
17177;SDS011;8704;52.006;4.374;2023-08-17T02:13:47;7.57;;;3.10;;
17177;SDS011;8704;52.006;4.374;2023-08-17T02:16:15;7.68;;;3.30;;
17177;SDS011;8704;52.006;4.374;2023-08-17T02:18:43;5.40;;;2.80;;
17177;SDS011;8704;52.006;4.374;2023-08-17T02:21:11;6.30;;;2.95;;
17177;SDS011;8704;52.006;4.374;2023-08-17T02:23:39;6.78;;;3.00;;
17177;SDS011;8704;52.006;4.374;2023-08-17T02:26:07;5.60;;;3.00;;
17177;SDS011;8704;52.006;4.374;2023-08-17T02:28:35;5.65;;;2.53;;
17177;SDS011;8704;52.006;4.374;2023-08-17T02:31:05;7.35;;;2.95;;
17177;SDS011;8704;52.006;4.374;2023-08-17T02:33:33;8.50;;;2.72;;
17177;SDS011;8704;52.006;4.374;2023-08-17T02:36:03;6.45;;;3.20;;
17177;SDS011;8704;52.006;4.374;2023-08-17T02:38:31;6.85;;;2.83;;
17177;SDS011;8704;52.006;4.374;2023-08-17T02:41:00;5.30;;;2.67;;
17177;SDS011;8704;52.006;4.374;2023-08-17T02:43:28;5.78;;;2.90;;
17177;SDS011;8704;52.006;4.374;2023-08-17T02:45:56;5.85;;;2.83;;
17177;SDS011;8704;52.006;4.374;2023-08-17T02:48:27;7.93;;;3.25;;
17177;SDS011;8704;52.006;4.374;2023-08-17T02:53:26;7.97;;;3.30;;
17177;SDS011;8704;52.006;4.374;2023-08-17T02:55:54;8.23;;;3.40;;
17177;SDS011;8704;52.006;4.374;2023-08-17T02:58:22;8.00;;;3.15;;
17177;SDS011;8704;52.006;4.374;2023-08-17T03:00:50;7.93;;;3.10;;
17177;SDS011;8704;52.006;4.374;2023-08-17T03:03:19;7.40;;;3.25;;
17177;SDS011;8704;52.006;4.374;2023-08-17T03:05:48;6.57;;;3.10;;
17177;SDS011;8704;52.006;4.374;2023-08-17T03:08:16;6.80;;;3.47;;
17177;SDS011;8704;52.006;4.374;2023-08-17T03:10:44;8.32;;;3.30;;
17177;SDS011;8704;52.006;4.374;2023-08-17T03:13:12;6.53;;;3.22;;
17177;SDS011;8704;52.006;4.374;2023-08-17T03:15:41;5.72;;;3.40;;
17177;SDS011;8704;52.006;4.374;2023-08-17T03:18:09;7.00;;;3.63;;
17177;SDS011;8704;52.006;4.374;2023-08-17T03:20:37;6.57;;;3.80;;
17177;SDS011;8704;52.006;4.374;2023-08-17T03:23:06;6.45;;;3.30;;
17177;SDS011;8704;52.006;4.374;2023-08-17T03:25:34;8.05;;;3.95;;
17177;SDS011;8704;52.006;4.374;2023-08-17T03:28:04;9.18;;;3.83;;
17177;SDS011;8704;52.006;4.374;2023-08-17T03:30:32;11.23;;;4.50;;
17177;SDS011;8704;52.006;4.374;2023-08-17T03:33:00;6.65;;;3.55;;
17177;SDS011;8704;52.006;4.374;2023-08-17T03:35:28;8.27;;;3.78;;
17177;SDS011;8704;52.006;4.374;2023-08-17T03:37:57;8.10;;;4.15;;
17177;SDS011;8704;52.006;4.374;2023-08-17T03:40:26;6.85;;;3.67;;
17177;SDS011;8704;52.006;4.374;2023-08-17T03:42:54;7.18;;;3.67;;
17177;SDS011;8704;52.006;4.374;2023-08-17T03:45:22;7.55;;;4.13;;
17177;SDS011;8704;52.006;4.374;2023-08-17T03:47:50;7.70;;;4.10;;
17177;SDS011;8704;52.006;4.374;2023-08-17T03:50:19;6.00;;;3.30;;
17177;SDS011;8704;52.006;4.374;2023-08-17T03:52:47;6.47;;;3.70;;
17177;SDS011;8704;52.006;4.374;2023-08-17T03:55:15;8.50;;;3.67;;
17177;SDS011;8704;52.006;4.374;2023-08-17T03:57:45;6.50;;;3.03;;
17177;SDS011;8704;52.006;4.374;2023-08-17T04:00:13;6.68;;;3.72;;
17177;SDS011;8704;52.006;4.374;2023-08-17T04:02:41;8.57;;;3.65;;
17177;SDS011;8704;52.006;4.374;2023-08-17T04:05:10;8.88;;;3.50;;
17177;SDS011;8704;52.006;4.374;2023-08-17T04:07:38;6.32;;;3.20;;
17177;SDS011;8704;52.006;4.374;2023-08-17T04:10:07;6.45;;;3.08;;
17177;SDS011;8704;52.006;4.374;2023-08-17T04:12:36;7.53;;;3.25;;
17177;SDS011;8704;52.006;4.374;2023-08-17T04:15:06;7.85;;;3.00;;
17177;SDS011;8704;52.006;4.374;2023-08-17T04:17:34;10.10;;;3.40;;
17177;SDS011;8704;52.006;4.374;2023-08-17T04:20:02;6.05;;;3.20;;
17177;SDS011;8704;52.006;4.374;2023-08-17T04:22:31;6.30;;;3.53;;
17177;SDS011;8704;52.006;4.374;2023-08-17T04:24:59;7.75;;;3.53;;
17177;SDS011;8704;52.006;4.374;2023-08-17T04:27:28;6.70;;;3.00;;
17177;SDS011;8704;52.006;4.374;2023-08-17T04:29:56;5.75;;;3.35;;
17177;SDS011;8704;52.006;4.374;2023-08-17T04:32:26;7.10;;;3.15;;
17177;SDS011;8704;52.006;4.374;2023-08-17T04:34:54;8.32;;;3.20;;
17177;SDS011;8704;52.006;4.374;2023-08-17T04:37:22;7.57;;;3.67;;
17177;SDS011;8704;52.006;4.374;2023-08-17T04:39:51;7.10;;;3.10;;
17177;SDS011;8704;52.006;4.374;2023-08-17T04:42:19;7.85;;;3.47;;
17177;SDS011;8704;52.006;4.374;2023-08-17T04:44:47;7.93;;;3.45;;
17177;SDS011;8704;52.006;4.374;2023-08-17T04:47:15;5.65;;;3.33;;
17177;SDS011;8704;52.006;4.374;2023-08-17T04:49:45;7.78;;;3.45;;
17177;SDS011;8704;52.006;4.374;2023-08-17T04:52:13;7.18;;;3.13;;
17177;SDS011;8704;52.006;4.374;2023-08-17T04:54:41;7.32;;;3.50;;
17177;SDS011;8704;52.006;4.374;2023-08-17T04:57:09;7.40;;;3.40;;
17177;SDS011;8704;52.006;4.374;2023-08-17T04:59:37;6.85;;;3.60;;
17177;SDS011;8704;52.006;4.374;2023-08-17T05:02:05;6.35;;;3.35;;
17177;SDS011;8704;52.006;4.374;2023-08-17T05:04:35;7.95;;;3.28;;
17177;SDS011;8704;52.006;4.374;2023-08-17T05:07:05;6.10;;;3.47;;
17177;SDS011;8704;52.006;4.374;2023-08-17T05:09:33;11.32;;;3.78;;
17177;SDS011;8704;52.006;4.374;2023-08-17T05:12:01;11.88;;;4.13;;
17177;SDS011;8704;52.006;4.374;2023-08-17T05:14:29;8.90;;;3.53;;
17177;SDS011;8704;52.006;4.374;2023-08-17T05:16:57;8.18;;;3.30;;
17177;SDS011;8704;52.006;4.374;2023-08-17T05:19:26;6.88;;;3.03;;
17177;SDS011;8704;52.006;4.374;2023-08-17T05:21:54;7.78;;;3.22;;
17177;SDS011;8704;52.006;4.374;2023-08-17T05:24:23;7.70;;;2.78;;
17177;SDS011;8704;52.006;4.374;2023-08-17T05:26:52;7.30;;;3.35;;
17177;SDS011;8704;52.006;4.374;2023-08-17T05:29:21;8.93;;;3.50;;
17177;SDS011;8704;52.006;4.374;2023-08-17T05:31:49;7.15;;;2.90;;
17177;SDS011;8704;52.006;4.374;2023-08-17T05:34:17;9.43;;;3.42;;
17177;SDS011;8704;52.006;4.374;2023-08-17T05:36:45;7.03;;;2.67;;
17177;SDS011;8704;52.006;4.374;2023-08-17T05:39:13;7.55;;;2.70;;
17177;SDS011;8704;52.006;4.374;2023-08-17T05:41:43;6.75;;;2.90;;
17177;SDS011;8704;52.006;4.374;2023-08-17T05:44:11;5.90;;;3.15;;
17177;SDS011;8704;52.006;4.374;2023-08-17T05:46:41;7.38;;;2.55;;
17177;SDS011;8704;52.006;4.374;2023-08-17T05:49:09;6.18;;;2.60;;
17177;SDS011;8704;52.006;4.374;2023-08-17T05:51:37;9.32;;;2.70;;
17177;SDS011;8704;52.006;4.374;2023-08-17T05:54:05;6.03;;;2.80;;
17177;SDS011;8704;52.006;4.374;2023-08-17T05:56:34;8.23;;;3.20;;
17177;SDS011;8704;52.006;4.374;2023-08-17T05:59:03;5.97;;;2.85;;
17177;SDS011;8704;52.006;4.374;2023-08-17T06:01:32;6.07;;;2.72;;
17177;SDS011;8704;52.006;4.374;2023-08-17T06:04:00;4.57;;;2.47;;
17177;SDS011;8704;52.006;4.374;2023-08-17T06:06:30;7.10;;;2.90;;
17177;SDS011;8704;52.006;4.374;2023-08-17T06:08:58;7.40;;;2.85;;
17177;SDS011;8704;52.006;4.374;2023-08-17T06:11:26;5.28;;;2.60;;
17177;SDS011;8704;52.006;4.374;2023-08-17T06:13:54;5.68;;;2.63;;
17177;SDS011;8704;52.006;4.374;2023-08-17T06:16:24;5.50;;;2.53;;
17177;SDS011;8704;52.006;4.374;2023-08-17T06:18:52;4.50;;;2.38;;
17177;SDS011;8704;52.006;4.374;2023-08-17T06:21:20;6.55;;;2.90;;
17177;SDS011;8704;52.006;4.374;2023-08-17T06:23:48;5.50;;;2.60;;
17177;SDS011;8704;52.006;4.374;2023-08-17T06:26:16;6.05;;;2.85;;
17177;SDS011;8704;52.006;4.374;2023-08-17T06:28:44;7.25;;;3.13;;
17177;SDS011;8704;52.006;4.374;2023-08-17T06:31:14;7.72;;;3.15;;
17177;SDS011;8704;52.006;4.374;2023-08-17T06:33:43;8.23;;;2.83;;
17177;SDS011;8704;52.006;4.374;2023-08-17T06:36:12;4.75;;;2.53;;
17177;SDS011;8704;52.006;4.374;2023-08-17T06:38:42;6.35;;;2.80;;
17177;SDS011;8704;52.006;4.374;2023-08-17T06:41:11;5.93;;;2.90;;
17177;SDS011;8704;52.006;4.374;2023-08-17T06:43:39;7.50;;;3.30;;
17177;SDS011;8704;52.006;4.374;2023-08-17T06:46:07;6.40;;;2.72;;
17177;SDS011;8704;52.006;4.374;2023-08-17T06:48:35;7.80;;;2.55;;
17177;SDS011;8704;52.006;4.374;2023-08-17T06:51:04;7.63;;;3.03;;
17177;SDS011;8704;52.006;4.374;2023-08-17T06:53:33;9.00;;;3.10;;
17177;SDS011;8704;52.006;4.374;2023-08-17T06:56:01;8.05;;;2.70;;
17177;SDS011;8704;52.006;4.374;2023-08-17T06:58:29;10.20;;;3.15;;
17177;SDS011;8704;52.006;4.374;2023-08-17T07:00:57;9.85;;;2.47;;
17177;SDS011;8704;52.006;4.374;2023-08-17T07:03:26;6.00;;;2.83;;
17177;SDS011;8704;52.006;4.374;2023-08-17T07:05:54;6.28;;;2.67;;
17177;SDS011;8704;52.006;4.374;2023-08-17T07:08:23;5.40;;;2.70;;
17177;SDS011;8704;52.006;4.374;2023-08-17T07:10:52;5.70;;;2.47;;
17177;SDS011;8704;52.006;4.374;2023-08-17T07:13:20;7.68;;;3.00;;
17177;SDS011;8704;52.006;4.374;2023-08-17T07:15:48;6.95;;;3.15;;
17177;SDS011;8704;52.006;4.374;2023-08-17T07:18:16;7.05;;;2.97;;
17177;SDS011;8704;52.006;4.374;2023-08-17T07:20:44;9.07;;;2.97;;
17177;SDS011;8704;52.006;4.374;2023-08-17T07:23:12;6.35;;;2.83;;
17177;SDS011;8704;52.006;4.374;2023-08-17T07:25:42;6.13;;;3.22;;
17177;SDS011;8704;52.006;4.374;2023-08-17T07:28:10;10.45;;;3.20;;
17177;SDS011;8704;52.006;4.374;2023-08-17T07:30:38;6.38;;;3.13;;
17177;SDS011;8704;52.006;4.374;2023-08-17T07:33:07;8.43;;;2.60;;
17177;SDS011;8704;52.006;4.374;2023-08-17T07:35:35;7.20;;;2.67;;
17177;SDS011;8704;52.006;4.374;2023-08-17T07:38:03;7.35;;;2.92;;
17177;SDS011;8704;52.006;4.374;2023-08-17T07:40:35;9.75;;;3.08;;
17177;SDS011;8704;52.006;4.374;2023-08-17T07:43:04;7.18;;;2.95;;
17177;SDS011;8704;52.006;4.374;2023-08-17T07:45:32;6.10;;;2.75;;
17177;SDS011;8704;52.006;4.374;2023-08-17T07:48:01;10.48;;;2.65;;
17177;SDS011;8704;52.006;4.374;2023-08-17T07:50:29;6.63;;;2.97;;
17177;SDS011;8704;52.006;4.374;2023-08-17T07:52:57;6.15;;;2.78;;
17177;SDS011;8704;52.006;4.374;2023-08-17T07:55:25;6.63;;;3.00;;
17177;SDS011;8704;52.006;4.374;2023-08-17T07:57:56;6.93;;;3.33;;
17177;SDS011;8704;52.006;4.374;2023-08-17T08:00:25;7.82;;;3.00;;
17177;SDS011;8704;52.006;4.374;2023-08-17T08:02:53;6.50;;;2.85;;
17177;SDS011;8704;52.006;4.374;2023-08-17T08:05:22;6.50;;;3.10;;
17177;SDS011;8704;52.006;4.374;2023-08-17T08:07:50;10.05;;;3.15;;
17177;SDS011;8704;52.006;4.374;2023-08-17T08:10:19;7.53;;;3.35;;
17177;SDS011;8704;52.006;4.374;2023-08-17T08:12:47;9.55;;;3.42;;
17177;SDS011;8704;52.006;4.374;2023-08-17T08:15:15;6.68;;;3.17;;
17177;SDS011;8704;52.006;4.374;2023-08-17T08:17:45;8.38;;;2.75;;
17177;SDS011;8704;52.006;4.374;2023-08-17T08:20:13;7.82;;;2.60;;
17177;SDS011;8704;52.006;4.374;2023-08-17T08:22:41;8.65;;;2.83;;
17177;SDS011;8704;52.006;4.374;2023-08-17T08:25:09;8.40;;;2.50;;
17177;SDS011;8704;52.006;4.374;2023-08-17T08:27:37;6.90;;;2.90;;
17177;SDS011;8704;52.006;4.374;2023-08-17T08:30:07;6.70;;;2.70;;
17177;SDS011;8704;52.006;4.374;2023-08-17T08:32:35;6.80;;;2.60;;
17177;SDS011;8704;52.006;4.374;2023-08-17T08:35:05;4.95;;;2.60;;
17177;SDS011;8704;52.006;4.374;2023-08-17T08:37:34;7.88;;;2.50;;
17177;SDS011;8704;52.006;4.374;2023-08-17T08:40:02;7.80;;;2.53;;
17177;SDS011;8704;52.006;4.374;2023-08-17T08:42:31;6.15;;;2.40;;
17177;SDS011;8704;52.006;4.374;2023-08-17T08:44:59;6.97;;;2.88;;
17177;SDS011;8704;52.006;4.374;2023-08-17T08:47:28;8.32;;;2.80;;
17177;SDS011;8704;52.006;4.374;2023-08-17T08:49:59;11.48;;;2.83;;
17177;SDS011;8704;52.006;4.374;2023-08-17T08:52:33;5.50;;;2.65;;
17177;SDS011;8704;52.006;4.374;2023-08-17T08:55:09;6.05;;;2.50;;
17177;SDS011;8704;52.006;4.374;2023-08-17T08:57:39;10.23;;;3.10;;
17177;SDS011;8704;52.006;4.374;2023-08-17T09:00:09;8.10;;;2.72;;
17177;SDS011;8704;52.006;4.374;2023-08-17T09:02:40;5.43;;;2.70;;
17177;SDS011;8704;52.006;4.374;2023-08-17T09:05:10;7.15;;;2.65;;
17177;SDS011;8704;52.006;4.374;2023-08-17T09:07:40;9.75;;;3.20;;
17177;SDS011;8704;52.006;4.374;2023-08-17T09:10:10;7.13;;;2.92;;
17177;SDS011;8704;52.006;4.374;2023-08-17T09:12:39;8.43;;;3.33;;
17177;SDS011;8704;52.006;4.374;2023-08-17T09:15:07;6.00;;;2.80;;
17177;SDS011;8704;52.006;4.374;2023-08-17T09:17:36;9.68;;;2.88;;
17177;SDS011;8704;52.006;4.374;2023-08-17T09:20:05;9.15;;;2.78;;
17177;SDS011;8704;52.006;4.374;2023-08-17T09:22:41;6.45;;;2.75;;
17177;SDS011;8704;52.006;4.374;2023-08-17T09:25:10;6.95;;;2.95;;
17177;SDS011;8704;52.006;4.374;2023-08-17T09:27:49;6.93;;;3.22;;
17177;SDS011;8704;52.006;4.374;2023-08-17T09:30:17;5.15;;;2.80;;
17177;SDS011;8704;52.006;4.374;2023-08-17T09:32:46;4.93;;;2.72;;
17177;SDS011;8704;52.006;4.374;2023-08-17T09:35:16;8.02;;;3.13;;
17177;SDS011;8704;52.006;4.374;2023-08-17T09:37:46;8.60;;;3.00;;
17177;SDS011;8704;52.006;4.374;2023-08-17T09:40:15;8.07;;;2.80;;
17177;SDS011;8704;52.006;4.374;2023-08-17T09:42:47;6.65;;;2.97;;
17177;SDS011;8704;52.006;4.374;2023-08-17T09:45:17;6.05;;;2.60;;
17177;SDS011;8704;52.006;4.374;2023-08-17T09:47:46;5.97;;;2.38;;
17177;SDS011;8704;52.006;4.374;2023-08-17T09:50:14;7.80;;;2.42;;
17177;SDS011;8704;52.006;4.374;2023-08-17T09:52:42;5.63;;;2.38;;
17177;SDS011;8704;52.006;4.374;2023-08-17T09:55:17;7.60;;;2.63;;
17177;SDS011;8704;52.006;4.374;2023-08-17T09:57:46;7.93;;;2.65;;
17177;SDS011;8704;52.006;4.374;2023-08-17T10:00:17;8.07;;;2.50;;
17177;SDS011;8704;52.006;4.374;2023-08-17T10:02:47;5.68;;;2.60;;
17177;SDS011;8704;52.006;4.374;2023-08-17T10:05:18;6.22;;;2.35;;
17177;SDS011;8704;52.006;4.374;2023-08-17T10:07:51;6.47;;;2.13;;
17177;SDS011;8704;52.006;4.374;2023-08-17T10:10:25;5.50;;;2.22;;
17177;SDS011;8704;52.006;4.374;2023-08-17T10:12:56;8.00;;;2.38;;
17177;SDS011;8704;52.006;4.374;2023-08-17T10:15:33;7.68;;;2.50;;
17177;SDS011;8704;52.006;4.374;2023-08-17T10:18:07;5.95;;;2.53;;
17177;SDS011;8704;52.006;4.374;2023-08-17T10:20:42;6.40;;;2.45;;
17177;SDS011;8704;52.006;4.374;2023-08-17T10:23:16;5.05;;;2.50;;
17177;SDS011;8704;52.006;4.374;2023-08-17T10:25:48;4.13;;;2.40;;
17177;SDS011;8704;52.006;4.374;2023-08-17T10:28:18;7.43;;;2.80;;
17177;SDS011;8704;52.006;4.374;2023-08-17T10:30:47;5.80;;;2.58;;
17177;SDS011;8704;52.006;4.374;2023-08-17T10:33:15;5.70;;;2.47;;
17177;SDS011;8704;52.006;4.374;2023-08-17T10:35:45;6.93;;;2.80;;
17177;SDS011;8704;52.006;4.374;2023-08-17T10:38:15;7.13;;;2.83;;
17177;SDS011;8704;52.006;4.374;2023-08-17T10:40:43;8.27;;;2.92;;
17177;SDS011;8704;52.006;4.374;2023-08-17T10:43:13;4.75;;;2.40;;
17177;SDS011;8704;52.006;4.374;2023-08-17T10:45:41;6.32;;;3.03;;
17177;SDS011;8704;52.006;4.374;2023-08-17T10:50:59;5.57;;;2.67;;
17177;SDS011;8704;52.006;4.374;2023-08-17T10:53:35;7.15;;;2.97;;
17177;SDS011;8704;52.006;4.374;2023-08-17T10:56:12;9.13;;;3.20;;
17177;SDS011;8704;52.006;4.374;2023-08-17T10:58:44;5.90;;;2.85;;
17177;SDS011;8704;52.006;4.374;2023-08-17T11:01:12;7.80;;;3.13;;
17177;SDS011;8704;52.006;4.374;2023-08-17T11:03:47;6.10;;;3.35;;
17177;SDS011;8704;52.006;4.374;2023-08-17T11:06:37;8.45;;;3.25;;
17177;SDS011;8704;52.006;4.374;2023-08-17T11:09:07;8.73;;;3.50;;
17177;SDS011;8704;52.006;4.374;2023-08-17T11:11:36;8.52;;;3.40;;
17177;SDS011;8704;52.006;4.374;2023-08-17T11:14:06;7.15;;;3.40;;
17177;SDS011;8704;52.006;4.374;2023-08-17T11:16:34;9.15;;;3.38;;
17177;SDS011;8704;52.006;4.374;2023-08-17T11:19:02;6.40;;;3.30;;
17177;SDS011;8704;52.006;4.374;2023-08-17T11:21:31;10.27;;;3.38;;
17177;SDS011;8704;52.006;4.374;2023-08-17T11:23:59;7.03;;;3.30;;
17177;SDS011;8704;52.006;4.374;2023-08-17T11:26:27;7.15;;;3.25;;
17177;SDS011;8704;52.006;4.374;2023-08-17T11:29:01;5.50;;;3.30;;
17177;SDS011;8704;52.006;4.374;2023-08-17T11:31:31;6.65;;;3.22;;
17177;SDS011;8704;52.006;4.374;2023-08-17T11:34:00;7.50;;;3.88;;
17177;SDS011;8704;52.006;4.374;2023-08-17T11:36:28;11.50;;;5.10;;
17177;SDS011;8704;52.006;4.374;2023-08-17T11:38:57;9.10;;;3.50;;
17177;SDS011;8704;52.006;4.374;2023-08-17T11:41:25;12.55;;;3.60;;
17177;SDS011;8704;52.006;4.374;2023-08-17T11:43:54;8.75;;;3.25;;
17177;SDS011;8704;52.006;4.374;2023-08-17T11:46:23;9.25;;;3.83;;
17177;SDS011;8704;52.006;4.374;2023-08-17T11:48:56;8.23;;;3.67;;
17177;SDS011;8704;52.006;4.374;2023-08-17T11:51:29;5.80;;;3.35;;
17177;SDS011;8704;52.006;4.374;2023-08-17T11:53:58;6.85;;;3.38;;
17177;SDS011;8704;52.006;4.374;2023-08-17T11:56:29;7.13;;;3.10;;
17177;SDS011;8704;52.006;4.374;2023-08-17T11:58:57;6.40;;;3.15;;
17177;SDS011;8704;52.006;4.374;2023-08-17T12:01:26;7.32;;;2.97;;
17177;SDS011;8704;52.006;4.374;2023-08-17T12:04:02;10.43;;;3.33;;
17177;SDS011;8704;52.006;4.374;2023-08-17T12:06:32;7.90;;;3.55;;
17177;SDS011;8704;52.006;4.374;2023-08-17T12:09:00;6.38;;;3.10;;
17177;SDS011;8704;52.006;4.374;2023-08-17T12:11:31;10.52;;;3.13;;
17177;SDS011;8704;52.006;4.374;2023-08-17T12:14:07;5.78;;;3.15;;
17177;SDS011;8704;52.006;4.374;2023-08-17T12:16:44;7.78;;;3.35;;
17177;SDS011;8704;52.006;4.374;2023-08-17T12:19:14;8.02;;;3.10;;
17177;SDS011;8704;52.006;4.374;2023-08-17T12:21:43;7.05;;;3.28;;
17177;SDS011;8704;52.006;4.374;2023-08-17T12:24:11;6.65;;;3.10;;
17177;SDS011;8704;52.006;4.374;2023-08-17T12:26:41;6.20;;;3.25;;
17177;SDS011;8704;52.006;4.374;2023-08-17T12:29:10;6.30;;;2.88;;
17177;SDS011;8704;52.006;4.374;2023-08-17T12:31:38;7.13;;;3.20;;
17177;SDS011;8704;52.006;4.374;2023-08-17T12:34:06;6.20;;;3.42;;
17177;SDS011;8704;52.006;4.374;2023-08-17T12:36:36;8.85;;;3.60;;
17177;SDS011;8704;52.006;4.374;2023-08-17T12:39:04;9.45;;;3.65;;
17177;SDS011;8704;52.006;4.374;2023-08-17T12:41:33;6.15;;;3.30;;
17177;SDS011;8704;52.006;4.374;2023-08-17T12:44:01;7.00;;;3.20;;
17177;SDS011;8704;52.006;4.374;2023-08-17T12:46:29;5.88;;;3.00;;
17177;SDS011;8704;52.006;4.374;2023-08-17T12:48:59;6.72;;;2.92;;
17177;SDS011;8704;52.006;4.374;2023-08-17T12:51:27;6.82;;;3.10;;
17177;SDS011;8704;52.006;4.374;2023-08-17T12:53:57;8.30;;;3.40;;
17177;SDS011;8704;52.006;4.374;2023-08-17T12:56:25;6.45;;;3.20;;
17177;SDS011;8704;52.006;4.374;2023-08-17T12:58:53;5.85;;;3.28;;
17177;SDS011;8704;52.006;4.374;2023-08-17T13:01:21;5.00;;;3.17;;
17177;SDS011;8704;52.006;4.374;2023-08-17T13:03:49;8.23;;;3.20;;
17177;SDS011;8704;52.006;4.374;2023-08-17T13:06:18;6.57;;;3.00;;
17177;SDS011;8704;52.006;4.374;2023-08-17T13:08:46;7.47;;;3.35;;
17177;SDS011;8704;52.006;4.374;2023-08-17T13:11:16;7.55;;;3.22;;
17177;SDS011;8704;52.006;4.374;2023-08-17T13:13:44;8.27;;;2.88;;
17177;SDS011;8704;52.006;4.374;2023-08-17T13:16:12;6.18;;;2.67;;
17177;SDS011;8704;52.006;4.374;2023-08-17T13:18:40;7.68;;;3.10;;
17177;SDS011;8704;52.006;4.374;2023-08-17T13:21:08;9.05;;;3.15;;
17177;SDS011;8704;52.006;4.374;2023-08-17T13:23:42;8.02;;;3.10;;
17177;SDS011;8704;52.006;4.374;2023-08-17T13:26:10;7.15;;;3.10;;
17177;SDS011;8704;52.006;4.374;2023-08-17T13:28:40;6.72;;;3.15;;
17177;SDS011;8704;52.006;4.374;2023-08-17T13:31:08;6.22;;;2.95;;
17177;SDS011;8704;52.006;4.374;2023-08-17T13:33:50;5.93;;;2.80;;
17177;SDS011;8704;52.006;4.374;2023-08-17T13:36:19;6.70;;;3.15;;
17177;SDS011;8704;52.006;4.374;2023-08-17T13:38:47;6.13;;;3.38;;
17177;SDS011;8704;52.006;4.374;2023-08-17T13:41:15;5.93;;;3.13;;
17177;SDS011;8704;52.006;4.374;2023-08-17T13:43:44;7.32;;;3.63;;
17177;SDS011;8704;52.006;4.374;2023-08-17T13:46:13;5.43;;;3.20;;
17177;SDS011;8704;52.006;4.374;2023-08-17T13:48:41;6.57;;;3.38;;
17177;SDS011;8704;52.006;4.374;2023-08-17T13:51:09;5.93;;;3.20;;
17177;SDS011;8704;52.006;4.374;2023-08-17T13:53:38;7.43;;;3.28;;
17177;SDS011;8704;52.006;4.374;2023-08-17T13:56:06;6.88;;;3.15;;
17177;SDS011;8704;52.006;4.374;2023-08-17T13:58:35;5.65;;;2.90;;
17177;SDS011;8704;52.006;4.374;2023-08-17T14:01:05;5.45;;;2.75;;
17177;SDS011;8704;52.006;4.374;2023-08-17T14:03:33;5.78;;;2.80;;
17177;SDS011;8704;52.006;4.374;2023-08-17T14:06:01;5.07;;;3.15;;
17177;SDS011;8704;52.006;4.374;2023-08-17T14:08:30;6.45;;;3.08;;
17177;SDS011;8704;52.006;4.374;2023-08-17T14:10:58;6.68;;;3.05;;
17177;SDS011;8704;52.006;4.374;2023-08-17T14:13:27;6.50;;;2.97;;
17177;SDS011;8704;52.006;4.374;2023-08-17T14:15:55;6.43;;;3.00;;
17177;SDS011;8704;52.006;4.374;2023-08-17T14:18:26;5.90;;;3.00;;
17177;SDS011;8704;52.006;4.374;2023-08-17T14:20:54;7.35;;;3.15;;
17177;SDS011;8704;52.006;4.374;2023-08-17T14:23:22;4.07;;;3.20;;
17177;SDS011;8704;52.006;4.374;2023-08-17T14:25:51;5.85;;;2.92;;
17177;SDS011;8704;52.006;4.374;2023-08-17T14:28:19;4.63;;;2.63;;
17177;SDS011;8704;52.006;4.374;2023-08-17T14:30:47;6.28;;;2.85;;
17177;SDS011;8704;52.006;4.374;2023-08-17T14:33:18;6.80;;;2.80;;
17177;SDS011;8704;52.006;4.374;2023-08-17T14:35:48;5.03;;;2.67;;
17177;SDS011;8704;52.006;4.374;2023-08-17T14:38:16;5.28;;;2.70;;
17177;SDS011;8704;52.006;4.374;2023-08-17T14:40:47;6.50;;;2.50;;
17177;SDS011;8704;52.006;4.374;2023-08-17T14:43:17;4.68;;;2.90;;
17177;SDS011;8704;52.006;4.374;2023-08-17T14:45:45;5.03;;;2.97;;
17177;SDS011;8704;52.006;4.374;2023-08-17T14:48:14;4.82;;;3.25;;
17177;SDS011;8704;52.006;4.374;2023-08-17T14:50:49;5.35;;;3.08;;
17177;SDS011;8704;52.006;4.374;2023-08-17T14:53:17;5.68;;;3.63;;
17177;SDS011;8704;52.006;4.374;2023-08-17T14:55:45;5.30;;;3.05;;
17177;SDS011;8704;52.006;4.374;2023-08-17T14:58:16;4.63;;;3.30;;
17177;SDS011;8704;52.006;4.374;2023-08-17T15:00:44;7.05;;;3.35;;
17177;SDS011;8704;52.006;4.374;2023-08-17T15:03:13;7.30;;;3.47;;
17177;SDS011;8704;52.006;4.374;2023-08-17T15:05:41;5.97;;;3.13;;
17177;SDS011;8704;52.006;4.374;2023-08-17T15:08:11;6.28;;;3.20;;
17177;SDS011;8704;52.006;4.374;2023-08-17T15:10:39;4.70;;;2.95;;
17177;SDS011;8704;52.006;4.374;2023-08-17T15:13:07;6.35;;;3.40;;
17177;SDS011;8704;52.006;4.374;2023-08-17T15:15:36;6.28;;;3.65;;
17177;SDS011;8704;52.006;4.374;2023-08-17T15:18:05;6.25;;;3.50;;